Time;durP1;ratioP1;P1;durP2;ratioP2;P2;SDS_P1;SDS_P2;PMS_P1;PMS_P2;Temp;Humidity;BMP_temperature;BMP_pressure;BME280_temperature;BME280_humidity;BME280_pressure;Samples;Min_cycle;Max_cycle;Signal;HPM_P1;HPM_P2
2023/03/07 00:00:11;;;;;;;19.15;10.52;;;3.70;99.90;;;;;;4900538;28;20030;-80
2023/03/07 00:02:38;;;;;;;15.95;8.27;;;3.70;99.90;;;;;;4911561;28;20061;-80
2023/03/07 00:05:04;;;;;;;14.40;7.30;;;3.70;99.90;;;;;;4899558;28;20166;-80
2023/03/07 00:07:30;;;;;;;14.30;7.50;;;3.70;99.90;;;;;;4916394;28;20121;-79
2023/03/07 00:09:57;;;;;;;18.98;10.73;;;3.80;99.90;;;;;;4901317;28;20031;-80
2023/03/07 00:12:22;;;;;;;21.58;12.70;;;3.70;99.90;;;;;;4917656;29;20403;-80
2023/03/07 00:14:48;;;;;;;12.40;7.07;;;3.70;99.90;;;;;;4911736;29;20039;-79
2023/03/07 00:17:13;;;;;;;14.20;7.85;;;3.80;99.90;;;;;;4933777;28;20043;-80
2023/03/07 00:19:41;;;;;;;12.13;6.32;;;3.80;99.90;;;;;;4891833;29;20032;-79
2023/03/07 00:22:07;;;;;;;16.20;8.32;;;3.80;99.90;;;;;;4892419;28;20036;-81
2023/03/07 00:24:33;;;;;;;10.13;5.93;;;3.80;99.90;;;;;;4899798;28;20038;-81
2023/03/07 00:26:58;;;;;;;16.98;8.82;;;3.90;99.90;;;;;;4911629;28;20038;-81
2023/03/07 00:29:24;;;;;;;12.98;5.43;;;3.80;99.90;;;;;;4911268;29;20087;-79
2023/03/07 00:31:49;;;;;;;13.30;8.35;;;3.90;99.90;;;;;;4893346;29;20400;-81
2023/03/07 00:34:15;;;;;;;15.32;8.15;;;3.90;99.90;;;;;;4932709;28;20039;-81
2023/03/07 00:36:41;;;;;;;12.95;7.63;;;3.80;99.90;;;;;;4897441;29;20036;-81
2023/03/07 00:39:07;;;;;;;13.25;7.88;;;3.90;99.90;;;;;;4929270;28;20377;-81
2023/03/07 00:41:32;;;;;;;9.73;5.78;;;3.90;99.90;;;;;;4916904;28;20368;-81
2023/03/07 00:43:58;;;;;;;12.82;7.10;;;3.90;99.90;;;;;;4897797;28;20019;-80
2023/03/07 00:46:24;;;;;;;10.55;4.88;;;3.90;99.90;;;;;;4917661;28;20036;-80
2023/03/07 00:48:49;;;;;;;13.82;7.03;;;3.90;99.90;;;;;;4907920;29;20404;-81
2023/03/07 00:51:15;;;;;;;9.57;5.00;;;3.90;99.90;;;;;;4898273;28;20023;-80
2023/03/07 00:53:41;;;;;;;9.15;5.07;;;3.90;99.90;;;;;;4897184;29;20028;-80
2023/03/07 00:56:10;;;;;;;13.80;8.30;;;3.90;99.90;;;;;;4896268;29;20099;-80
2023/03/07 00:58:35;;;;;;;5.97;3.95;;;3.90;99.90;;;;;;4918153;29;20035;-80
2023/03/07 01:01:02;;;;;;;12.32;7.07;;;3.90;99.90;;;;;;4913429;29;20048;-80
2023/03/07 01:03:28;;;;;;;8.75;5.43;;;3.90;99.90;;;;;;4914327;28;20046;-81
2023/03/07 01:05:54;;;;;;;12.18;7.25;;;3.90;99.90;;;;;;4917307;28;20148;-80
2023/03/07 01:08:20;;;;;;;6.72;3.95;;;3.90;99.90;;;;;;4921971;28;20039;-81
2023/03/07 01:10:47;;;;;;;10.63;4.90;;;3.90;99.90;;;;;;4914257;28;20120;-81
2023/03/07 01:13:13;;;;;;;7.95;5.10;;;3.90;99.90;;;;;;4915016;28;20471;-81
2023/03/07 01:15:38;;;;;;;6.90;3.67;;;3.90;99.90;;;;;;4904566;28;20046;-80
2023/03/07 01:18:04;;;;;;;11.93;7.40;;;3.90;99.90;;;;;;4904580;28;20492;-80
2023/03/07 01:20:31;;;;;;;9.82;5.00;;;4.00;99.90;;;;;;4901726;28;20041;-80
2023/03/07 01:22:57;;;;;;;8.57;4.47;;;3.90;99.90;;;;;;4902725;28;20572;-81
2023/03/07 01:25:23;;;;;;;9.85;3.97;;;4.00;99.90;;;;;;4902304;28;20031;-81
2023/03/07 01:27:50;;;;;;;6.55;3.30;;;3.90;99.90;;;;;;4893150;28;20050;-81
2023/03/07 01:30:15;;;;;;;7.85;5.97;;;4.10;99.90;;;;;;4927614;28;20085;-81
2023/03/07 01:32:41;;;;;;;10.77;5.28;;;3.90;99.90;;;;;;4902298;28;20062;-81
2023/03/07 01:35:07;;;;;;;8.55;5.85;;;3.90;99.90;;;;;;4920663;28;20109;-81
2023/03/07 01:37:33;;;;;;;8.90;5.43;;;3.90;99.90;;;;;;4894620;28;20035;-80
2023/03/07 01:39:58;;;;;;;7.82;4.07;;;4.00;99.90;;;;;;4906787;28;20031;-81
2023/03/07 01:42:24;;;;;;;7.10;4.68;;;3.90;99.90;;;;;;4901516;28;20044;-81
2023/03/07 01:45:03;;;;;;;8.00;4.88;;;3.90;99.90;;;;;;4895326;28;20032;-82
2023/03/07 01:47:28;;;;;;;7.75;5.45;;;4.00;99.90;;;;;;4921239;28;20347;-81
2023/03/07 01:49:54;;;;;;;9.85;4.40;;;4.00;99.90;;;;;;4894785;28;20107;-81
2023/03/07 01:52:22;;;;;;;5.72;3.35;;;4.00;99.90;;;;;;4912266;28;20043;-80
2023/03/07 01:54:54;;;;;;;6.93;4.95;;;4.00;99.90;;;;;;4900328;28;20472;-81
2023/03/07 01:57:22;;;;;;;8.32;5.18;;;4.00;99.90;;;;;;4946466;28;20491;-81
2023/03/07 01:59:49;;;;;;;8.10;5.03;;;4.00;99.90;;;;;;4901760;29;20488;-81
2023/03/07 02:02:16;;;;;;;5.97;3.60;;;4.00;99.90;;;;;;4895996;28;20164;-81
2023/03/07 02:04:45;;;;;;;7.97;5.32;;;4.00;99.90;;;;;;4916878;29;20499;-81
2023/03/07 02:07:10;;;;;;;6.82;3.35;;;4.00;99.90;;;;;;4904378;28;20510;-82
2023/03/07 02:09:36;;;;;;;3.28;1.92;;;4.00;99.90;;;;;;4899936;28;20059;-82
2023/03/07 02:12:01;;;;;;;6.13;4.43;;;4.00;99.90;;;;;;4897931;28;20058;-81
2023/03/07 02:14:27;;;;;;;6.03;3.65;;;4.00;99.90;;;;;;4907282;28;20127;-81
2023/03/07 02:16:53;;;;;;;4.35;2.97;;;4.00;99.90;;;;;;4902774;28;20036;-80
2023/03/07 02:19:27;;;;;;;5.82;3.58;;;4.00;99.90;;;;;;4918750;28;20019;-81
2023/03/07 02:22:07;;;;;;;7.47;3.25;;;4.00;99.90;;;;;;4912330;28;20119;-81
2023/03/07 02:24:55;;;;;;;4.40;3.08;;;4.00;99.90;;;;;;4911654;28;20035;-80
2023/03/07 02:27:22;;;;;;;4.00;2.58;;;4.00;99.90;;;;;;4915508;28;20031;-81
2023/03/07 02:29:48;;;;;;;4.50;2.47;;;4.00;99.90;;;;;;4908079;29;20043;-81
2023/03/07 02:32:13;;;;;;;3.97;2.45;;;4.00;99.90;;;;;;4918997;28;20376;-81
2023/03/07 02:34:39;;;;;;;5.75;2.60;;;4.00;99.90;;;;;;4907166;28;20484;-81
2023/03/07 02:37:08;;;;;;;3.67;2.80;;;4.00;99.90;;;;;;4899639;28;20031;-81
2023/03/07 02:39:33;;;;;;;3.55;2.85;;;4.00;99.90;;;;;;4892632;28;20031;-81
2023/03/07 02:42:06;;;;;;;2.90;1.48;;;4.00;99.90;;;;;;4893871;28;20397;-82
2023/03/07 02:44:32;;;;;;;2.83;2.03;;;4.00;99.90;;;;;;4897945;28;20098;-80
2023/03/07 02:46:57;;;;;;;3.38;2.60;;;4.00;99.90;;;;;;4904863;28;20035;-81
2023/03/07 02:49:23;;;;;;;4.45;2.72;;;4.00;99.90;;;;;;4898386;28;20035;-80
2023/03/07 02:51:48;;;;;;;4.72;2.88;;;4.00;99.90;;;;;;4899705;29;20408;-80
2023/03/07 02:54:14;;;;;;;3.75;1.60;;;4.00;99.90;;;;;;4910342;28;20094;-80
2023/03/07 02:56:40;;;;;;;2.70;1.98;;;4.20;99.90;;;;;;4910666;29;20484;-80
2023/03/07 02:59:05;;;;;;;2.67;2.00;;;4.10;99.90;;;;;;4895478;28;20054;-81
2023/03/07 03:01:31;;;;;;;3.28;1.85;;;4.00;99.90;;;;;;4910779;28;20042;-81
2023/03/07 03:03:57;;;;;;;3.65;2.20;;;4.40;99.90;;;;;;4919335;28;20023;-81
2023/03/07 03:06:23;;;;;;;3.22;1.70;;;4.00;99.90;;;;;;4898539;28;20028;-81
2023/03/07 03:08:48;;;;;;;3.33;2.35;;;4.00;99.90;;;;;;4898465;29;20048;-81
2023/03/07 03:11:14;;;;;;;2.55;2.00;;;4.10;99.90;;;;;;4934342;28;20032;-80
2023/03/07 03:13:40;;;;;;;2.08;1.63;;;4.00;99.90;;;;;;4916625;29;20036;-81
2023/03/07 03:16:05;;;;;;;2.17;1.70;;;4.00;99.90;;;;;;4906090;28;20106;-81
2023/03/07 03:18:31;;;;;;;2.40;1.45;;;4.00;99.90;;;;;;4915740;28;20042;-81
2023/03/07 03:20:57;;;;;;;2.70;1.75;;;4.10;99.90;;;;;;4920461;28;20043;-81
2023/03/07 03:23:22;;;;;;;2.65;1.52;;;4.00;99.90;;;;;;4901707;28;20030;-82
2023/03/07 03:25:58;;;;;;;2.67;1.58;;;4.00;99.90;;;;;;4899578;29;20043;-81
2023/03/07 03:28:24;;;;;;;;;;;4.00;99.90;;;;;;4912635;28;20027;-80
2023/03/07 03:30:59;;;;;;;2.33;1.20;;;4.00;99.90;;;;;;4925893;28;19929;-80
2023/03/07 03:33:26;;;;;;;4.82;2.75;;;4.00;99.90;;;;;;4931640;28;20105;-81
2023/03/07 03:35:54;;;;;;;3.33;2.00;;;4.00;99.90;;;;;;4913210;28;20308;-80
2023/03/07 03:38:20;;;;;;;1.95;1.15;;;4.30;99.90;;;;;;4909845;28;20038;-81
2023/03/07 03:40:45;;;;;;;3.78;3.17;;;4.00;99.90;;;;;;4898330;28;20043;-81
2023/03/07 03:43:11;;;;;;;2.80;2.15;;;4.00;99.90;;;;;;4915355;28;20039;-81
2023/03/07 03:45:37;;;;;;;2.65;1.50;;;4.00;99.90;;;;;;4920823;28;20039;-81
2023/03/07 03:48:02;;;;;;;3.85;2.67;;;4.00;99.90;;;;;;4911947;28;20035;-81
2023/03/07 03:50:28;;;;;;;3.85;1.95;;;4.00;99.90;;;;;;4902816;28;20516;-82
2023/03/07 03:52:53;;;;;;;3.13;2.58;;;4.00;99.90;;;;;;4917650;28;20403;-82
2023/03/07 03:55:19;;;;;;;4.25;3.47;;;4.10;99.90;;;;;;4897990;28;20035;-82
2023/03/07 03:57:44;;;;;;;5.72;3.83;;;4.10;99.90;;;;;;4912018;28;20070;-81
2023/03/07 04:00:14;;;;;;;2.13;1.27;;;4.00;99.90;;;;;;4899714;28;20495;-82
2023/03/07 04:02:40;;;;;;;4.93;2.05;;;4.00;99.90;;;;;;4914069;28;20125;-81
2023/03/07 04:05:06;;;;;;;1.38;1.05;;;4.00;99.90;;;;;;4900409;28;20633;-81
2023/03/07 04:07:31;;;;;;;2.15;1.85;;;4.00;99.90;;;;;;4916522;28;20145;-82
2023/03/07 04:09:57;;;;;;;4.82;2.35;;;4.00;99.90;;;;;;4904166;28;20125;-82
2023/03/07 04:12:23;;;;;;;3.42;1.88;;;4.00;99.90;;;;;;4899883;28;20041;-81
2023/03/07 04:14:48;;;;;;;3.15;1.60;;;4.00;99.90;;;;;;4910652;28;20536;-81
2023/03/07 04:17:14;;;;;;;4.78;1.75;;;4.00;99.90;;;;;;4930608;28;20030;-82
2023/03/07 04:19:39;;;;;;;2.92;2.00;;;4.10;99.90;;;;;;4896610;29;20036;-81
2023/03/07 04:22:05;;;;;;;1.77;1.48;;;4.00;99.90;;;;;;4892220;28;20031;-81
2023/03/07 04:24:31;;;;;;;3.63;1.23;;;4.00;99.90;;;;;;4918394;28;20042;-81
2023/03/07 04:26:56;;;;;;;2.38;0.98;;;4.00;99.90;;;;;;4905086;28;20091;-81
2023/03/07 04:29:22;;;;;;;2.20;1.58;;;4.00;99.90;;;;;;4922434;28;20435;-82
2023/03/07 04:31:47;;;;;;;1.90;1.50;;;4.00;99.90;;;;;;4911859;28;20491;-82
2023/03/07 04:34:13;;;;;;;1.73;1.30;;;4.00;99.90;;;;;;4935678;28;20491;-83
2023/03/07 04:36:38;;;;;;;2.97;2.28;;;4.10;99.90;;;;;;4922546;28;20380;-82
2023/03/07 04:39:04;;;;;;;2.83;1.75;;;4.00;99.90;;;;;;4904454;28;20578;-82
2023/03/07 04:41:30;;;;;;;5.82;3.17;;;4.00;99.90;;;;;;4923284;28;20479;-82
2023/03/07 04:43:55;;;;;;;3.83;2.80;;;4.00;99.90;;;;;;4917409;28;20524;-82
2023/03/07 04:46:21;;;;;;;4.45;3.10;;;4.00;99.90;;;;;;4906097;28;20545;-83
2023/03/07 04:48:47;;;;;;;4.50;3.50;;;3.90;99.90;;;;;;4937779;28;20437;-82
2023/03/07 04:51:12;;;;;;;2.63;1.80;;;3.90;99.90;;;;;;4940924;28;20107;-81
2023/03/07 04:53:38;;;;;;;5.10;3.28;;;4.00;99.90;;;;;;4924084;28;20043;-83
2023/03/07 04:56:05;;;;;;;9.50;6.10;;;4.00;99.90;;;;;;4903572;28;20483;-81
2023/03/07 04:58:30;;;;;;;7.60;5.00;;;3.90;99.90;;;;;;4907487;28;20038;-81
2023/03/07 05:00:56;;;;;;;7.63;4.45;;;4.00;99.90;;;;;;4917975;28;20039;-82
2023/03/07 05:03:22;;;;;;;3.15;2.20;;;4.00;99.90;;;;;;4907187;28;20031;-81
2023/03/07 05:05:47;;;;;;;6.35;4.03;;;4.00;99.90;;;;;;4937524;28;20059;-86
2023/03/07 05:08:13;;;;;;;6.50;4.50;;;4.00;99.90;;;;;;4928920;28;20051;-80
2023/03/07 05:10:38;;;;;;;7.55;2.03;;;4.00;99.90;;;;;;4919884;28;20032;-81
2023/03/07 05:13:04;;;;;;;8.48;5.53;;;4.00;99.90;;;;;;4936668;28;20472;-81
2023/03/07 05:15:30;;;;;;;10.20;6.25;;;4.00;99.90;;;;;;4910648;28;20063;-82
2023/03/07 05:17:55;;;;;;;7.22;3.83;;;4.00;99.90;;;;;;4901810;28;20680;-82
2023/03/07 05:20:22;;;;;;;5.88;3.97;;;4.10;99.90;;;;;;4933994;28;20031;-82
2023/03/07 05:22:48;;;;;;;7.07;3.90;;;4.00;99.90;;;;;;4900777;28;20040;-80
2023/03/07 05:25:13;;;;;;;7.70;2.92;;;4.00;99.90;;;;;;4933463;28;20031;-82
2023/03/07 05:27:39;;;;;;;6.45;4.18;;;4.00;99.90;;;;;;4936148;28;20036;-81
2023/03/07 05:30:05;;;;;;;8.55;4.43;;;4.00;99.90;;;;;;4902461;28;20111;-82
2023/03/07 05:32:31;;;;;;;10.52;6.72;;;4.00;99.90;;;;;;4899020;28;20094;-82
2023/03/07 05:34:57;;;;;;;10.35;7.45;;;4.00;99.90;;;;;;4930379;28;20424;-80
2023/03/07 05:37:22;;;;;;;6.07;3.67;;;4.00;99.90;;;;;;4895041;28;20031;-82
2023/03/07 05:39:48;;;;;;;10.55;6.55;;;4.00;99.90;;;;;;4902815;28;20090;-83
2023/03/07 05:42:14;;;;;;;12.55;7.75;;;4.00;99.90;;;;;;4933945;28;20035;-82
2023/03/07 05:44:40;;;;;;;6.95;4.70;;;4.00;99.90;;;;;;4899678;28;20063;-81
2023/03/07 05:47:06;;;;;;;7.45;4.18;;;4.00;99.90;;;;;;4944400;28;20055;-81
2023/03/07 05:49:31;;;;;;;5.30;3.35;;;3.90;99.90;;;;;;4897087;28;20055;-81
2023/03/07 05:51:57;;;;;;;9.38;6.22;;;4.00;99.90;;;;;;4918440;28;20488;-81
2023/03/07 05:54:22;;;;;;;10.90;7.00;;;4.00;99.90;;;;;;4935366;28;20385;-82
2023/03/07 05:56:48;;;;;;;6.45;4.78;;;3.90;99.90;;;;;;4903834;28;20377;-81
2023/03/07 05:59:14;;;;;;;9.23;5.68;;;4.00;99.90;;;;;;4933777;28;20024;-82
2023/03/07 06:01:40;;;;;;;9.73;5.90;;;4.50;99.90;;;;;;4902189;28;20126;-81
2023/03/07 06:04:06;;;;;;;9.25;5.35;;;4.00;99.90;;;;;;4900147;28;21406;-81
2023/03/07 06:06:31;;;;;;;9.18;6.35;;;4.00;99.90;;;;;;4896322;28;20035;-81
2023/03/07 06:08:57;;;;;;;9.85;6.90;;;4.00;99.90;;;;;;4898502;28;20031;-82
2023/03/07 06:11:23;;;;;;;8.63;5.20;;;3.90;99.90;;;;;;4901071;28;20052;-81
2023/03/07 06:13:48;;;;;;;9.57;4.60;;;3.90;99.90;;;;;;4901901;28;20460;-82
2023/03/07 06:16:14;;;;;;;6.97;5.65;;;4.00;99.90;;;;;;4910983;28;20403;-82
2023/03/07 06:18:40;;;;;;;10.48;7.38;;;4.00;99.90;;;;;;4918786;28;20403;-81
2023/03/07 06:21:09;;;;;;;6.63;4.97;;;3.90;99.90;;;;;;4896929;28;20031;-81
2023/03/07 06:23:35;;;;;;;11.23;5.25;;;3.90;99.90;;;;;;4893932;28;20046;-81
2023/03/07 06:26:01;;;;;;;8.30;5.43;;;4.00;99.90;;;;;;4899391;28;20484;-82
2023/03/07 06:28:26;;;;;;;6.38;3.95;;;4.10;99.90;;;;;;4915645;28;20041;-81
2023/03/07 06:30:52;;;;;;;7.25;4.70;;;4.00;99.90;;;;;;4914454;28;20051;-82
2023/03/07 06:33:18;;;;;;;8.15;5.78;;;3.90;99.90;;;;;;4898232;28;20117;-81
2023/03/07 06:35:43;;;;;;;12.27;6.80;;;4.00;99.90;;;;;;4911225;28;20416;-81
2023/03/07 06:38:10;;;;;;;10.63;6.90;;;4.00;99.90;;;;;;4901759;28;20035;-82
2023/03/07 06:40:35;;;;;;;11.65;7.45;;;4.00;99.90;;;;;;4896990;28;20894;-81
2023/03/07 06:43:01;;;;;;;9.45;5.35;;;3.90;99.90;;;;;;4905582;28;20044;-82
2023/03/07 06:45:27;;;;;;;13.45;8.48;;;4.00;99.90;;;;;;4918533;28;20532;-83
2023/03/07 06:47:53;;;;;;;8.13;4.93;;;4.00;99.90;;;;;;4902199;28;20039;-81
2023/03/07 06:50:19;;;;;;;8.85;5.03;;;4.30;99.90;;;;;;4916910;28;20475;-81
2023/03/07 06:52:45;;;;;;;10.15;6.50;;;4.00;99.90;;;;;;4898976;29;20047;-82
2023/03/07 06:55:10;;;;;;;8.88;5.60;;;4.30;99.90;;;;;;4898527;28;20032;-82
2023/03/07 06:57:36;;;;;;;7.32;4.35;;;4.00;99.90;;;;;;4911793;29;20155;-82
2023/03/07 07:00:05;;;;;;;6.95;4.47;;;4.00;99.90;;;;;;4902874;28;20038;-81
2023/03/07 07:02:31;;;;;;;7.80;4.82;;;4.00;99.90;;;;;;4927429;28;20495;-82
2023/03/07 07:04:59;;;;;;;11.50;7.43;;;4.00;99.90;;;;;;4899739;28;20038;-81
2023/03/07 07:07:25;;;;;;;16.38;7.35;;;4.10;99.90;;;;;;4900781;28;20047;-81
2023/03/07 07:09:51;;;;;;;9.75;5.75;;;4.10;99.90;;;;;;4912394;28;20114;-81
2023/03/07 07:12:17;;;;;;;10.93;6.30;;;4.10;99.90;;;;;;4905517;28;20031;-82
2023/03/07 07:14:43;;;;;;;9.02;5.32;;;4.10;99.90;;;;;;4909877;28;20428;-83
2023/03/07 07:17:08;;;;;;;10.90;4.85;;;4.00;99.90;;;;;;4897949;28;20086;-84
2023/03/07 07:19:34;;;;;;;7.22;4.72;;;4.10;99.90;;;;;;4917049;28;20031;-79
2023/03/07 07:21:59;;;;;;;7.22;5.00;;;4.10;99.90;;;;;;4927797;28;20031;-79
2023/03/07 07:24:25;;;;;;;9.00;5.90;;;4.10;99.90;;;;;;4916172;28;20034;-79
2023/03/07 07:26:51;;;;;;;11.35;7.00;;;4.60;99.90;;;;;;4899202;28;20062;-79
2023/03/07 07:29:16;;;;;;;9.38;5.53;;;4.10;99.90;;;;;;4909645;28;20031;-79
2023/03/07 07:31:42;;;;;;;8.20;4.40;;;4.10;99.90;;;;;;4898248;28;20031;-81
2023/03/07 07:34:07;;;;;;;10.65;6.55;;;4.10;99.90;;;;;;4896569;28;20032;-79
2023/03/07 07:36:33;;;;;;;13.43;7.78;;;4.00;99.90;;;;;;4899719;28;20031;-79
2023/03/07 07:39:04;;;;;;;12.45;7.43;;;4.10;99.90;;;;;;4925408;28;20035;-79
2023/03/07 07:41:31;;;;;;;14.52;6.43;;;4.20;99.90;;;;;;4900359;28;20075;-79
2023/03/07 07:43:56;;;;;;;7.05;4.70;;;4.20;99.90;;;;;;4893880;28;20054;-79
2023/03/07 07:46:22;;;;;;;10.00;5.45;;;4.20;99.90;;;;;;4901941;28;20486;-79
2023/03/07 07:48:48;;;;;;;12.85;7.43;;;4.20;99.90;;;;;;4906368;29;20466;-79
2023/03/07 07:51:13;;;;;;;13.13;6.00;;;4.20;99.90;;;;;;4931969;28;20023;-79
2023/03/07 07:53:39;;;;;;;11.50;7.40;;;4.20;99.90;;;;;;4913550;29;20044;-79
2023/03/07 07:56:05;;;;;;;7.45;4.35;;;4.20;99.90;;;;;;4911877;28;20404;-80
2023/03/07 07:58:30;;;;;;;9.65;3.72;;;4.20;99.90;;;;;;4902053;28;20135;-79
2023/03/07 08:00:56;;;;;;;14.32;6.93;;;4.20;99.90;;;;;;4900032;29;20122;-80
2023/03/07 08:03:22;;;;;;;9.65;6.57;;;4.20;99.90;;;;;;4914741;28;20035;-79
2023/03/07 08:05:47;;;;;;;15.73;9.55;;;4.20;99.90;;;;;;4912982;29;20107;-79
2023/03/07 08:08:15;;;;;;;10.57;5.38;;;4.20;99.90;;;;;;4937362;28;20400;-78
2023/03/07 08:10:42;;;;;;;14.55;8.35;;;4.20;99.90;;;;;;4895207;29;20036;-79
2023/03/07 08:13:11;;;;;;;8.82;5.57;;;4.20;99.90;;;;;;4913717;29;20032;-78
2023/03/07 08:15:36;;;;;;;12.35;5.43;;;4.20;99.90;;;;;;4893257;29;20046;-78
2023/03/07 08:18:02;;;;;;;9.18;5.55;;;4.20;99.90;;;;;;4923893;29;20106;-79
2023/03/07 08:20:27;;;;;;;12.45;8.88;;;4.20;99.90;;;;;;4901873;28;20047;-78
2023/03/07 08:22:53;;;;;;;10.70;6.43;;;4.20;99.90;;;;;;4903840;29;20036;-78
2023/03/07 08:25:21;;;;;;;14.63;7.28;;;4.20;99.90;;;;;;4913769;28;20070;-77
2023/03/07 08:27:47;;;;;;;14.57;8.43;;;4.20;99.90;;;;;;4918593;28;20045;-78
2023/03/07 08:30:13;;;;;;;9.45;5.43;;;4.10;99.90;;;;;;4948249;28;20116;-78
2023/03/07 08:32:39;;;;;;;11.93;7.35;;;4.20;99.90;;;;;;4930710;28;20044;-78
2023/03/07 08:35:05;;;;;;;8.00;4.43;;;4.20;99.90;;;;;;4914721;28;20488;-79
2023/03/07 08:37:31;;;;;;;6.00;3.95;;;4.20;99.90;;;;;;4906230;28;20036;-78
2023/03/07 08:39:59;;;;;;;7.82;4.82;;;4.20;99.90;;;;;;4907555;28;20030;-79
2023/03/07 08:42:25;;;;;;;11.75;6.60;;;4.30;99.90;;;;;;4895369;28;20043;-79
2023/03/07 08:44:50;;;;;;;8.93;6.10;;;4.30;99.90;;;;;;4918904;28;20045;-79
2023/03/07 08:47:16;;;;;;;8.70;4.50;;;4.30;99.90;;;;;;4936954;28;20063;-80
2023/03/07 08:49:41;;;;;;;10.50;6.28;;;4.20;99.90;;;;;;4922808;28;20054;-80
2023/03/07 08:52:07;;;;;;;11.20;6.80;;;4.20;99.90;;;;;;4917251;28;20023;-80
2023/03/07 08:54:33;;;;;;;8.27;5.25;;;4.20;99.90;;;;;;4915392;28;20031;-80
2023/03/07 08:56:59;;;;;;;11.25;5.43;;;4.30;99.90;;;;;;4930531;28;20054;-79
2023/03/07 08:59:25;;;;;;;9.52;5.80;;;4.30;99.90;;;;;;4923328;28;20031;-79
2023/03/07 09:01:50;;;;;;;8.88;5.95;;;4.30;99.90;;;;;;4901661;28;20132;-79
2023/03/07 09:04:16;;;;;;;12.80;7.57;;;4.20;99.90;;;;;;4936267;28;20042;-79
2023/03/07 09:06:42;;;;;;;8.57;4.90;;;4.20;99.90;;;;;;4918965;28;20050;-78
2023/03/07 09:09:08;;;;;;;10.23;6.03;;;4.20;99.90;;;;;;4932099;28;20507;-80
2023/03/07 09:11:33;;;;;;;8.00;4.68;;;4.20;99.90;;;;;;4917621;28;20031;-79
2023/03/07 09:13:59;;;;;;;6.30;3.83;;;4.20;99.90;;;;;;4923389;28;20361;-80
2023/03/07 09:16:24;;;;;;;18.98;8.05;;;4.20;99.90;;;;;;4918222;28;20098;-79
2023/03/07 09:18:50;;;;;;;9.05;5.45;;;4.20;99.90;;;;;;4920972;28;20423;-80
2023/03/07 09:21:16;;;;;;;9.40;6.85;;;4.20;99.90;;;;;;4933784;28;20135;-79
2023/03/07 09:23:42;;;;;;;11.05;7.15;;;4.20;99.90;;;;;;4901490;28;20067;-79
2023/03/07 09:26:07;;;;;;;16.80;10.38;;;4.20;99.90;;;;;;4922437;28;20027;-79
2023/03/07 09:28:33;;;;;;;19.15;11.95;;;4.10;99.90;;;;;;4917865;28;20518;-80
2023/03/07 09:30:59;;;;;;;22.60;12.27;;;4.10;99.90;;;;;;4915457;28;20554;-78
2023/03/07 09:33:24;;;;;;;26.70;12.02;;;3.90;99.90;;;;;;4901861;28;25372;-79
2023/03/07 09:35:50;;;;;;;15.80;9.32;;;3.90;99.90;;;;;;4935760;28;20050;-78
2023/03/07 09:38:15;;;;;;;16.70;10.48;;;3.90;99.90;;;;;;4933857;28;20499;-78
2023/03/07 09:40:44;;;;;;;17.50;10.30;;;3.90;99.90;;;;;;4902443;28;20063;-79
2023/03/07 09:43:21;;;;;;;14.60;8.48;;;3.90;99.90;;;;;;4902281;28;20031;-78
2023/03/07 09:45:52;;;;;;;16.27;8.10;;;3.90;99.90;;;;;;4927454;28;20673;-78
2023/03/07 09:48:57;;;;;;;16.67;9.93;;;4.00;99.90;;;;;;4957175;28;20042;-79
2023/03/07 09:51:37;;;;;;;20.15;12.48;;;4.00;99.90;;;;;;4912782;28;20504;-80
2023/03/07 09:54:12;;;;;;;18.15;10.50;;;4.00;99.90;;;;;;4949335;28;20058;-79
2023/03/07 09:56:56;;;;;;;18.50;10.60;;;4.10;99.90;;;;;;4905556;29;20547;-80
2023/03/07 09:59:55;;;;;;;12.68;6.50;;;4.10;99.90;;;;;;4926258;28;20031;-80
2023/03/07 10:02:28;;;;;;;10.10;6.20;;;4.20;99.90;;;;;;4873384;28;20503;-80
2023/03/07 10:05:07;;;;;;;7.22;4.00;;;4.20;99.90;;;;;;4918876;28;20031;-79
2023/03/07 10:07:34;;;;;;;6.25;3.30;;;4.20;99.90;;;;;;4935742;28;20049;-82
2023/03/07 10:10:26;;;;;;;6.05;4.38;;;4.20;99.90;;;;;;4897551;28;20043;-81
2023/03/07 10:13:09;;;;;;;6.78;3.88;;;4.20;99.90;;;;;;4915082;28;20082;-80
2023/03/07 10:15:41;;;;;;;6.65;3.45;;;4.30;99.90;;;;;;4933686;28;20136;-80
2023/03/07 10:18:31;;;;;;;7.75;4.93;;;4.50;99.90;;;;;;4944191;28;20043;-79
2023/03/07 10:21:14;;;;;;;5.00;3.40;;;4.30;99.90;;;;;;4942667;28;20456;-80
2023/03/07 10:23:42;;;;;;;5.43;3.35;;;4.30;99.90;;;;;;4928294;29;20036;-79
2023/03/07 10:26:11;;;;;;;4.30;3.00;;;4.30;99.90;;;;;;4943451;28;20035;-79
2023/03/07 10:28:40;;;;;;;4.63;3.47;;;4.30;99.90;;;;;;4922114;28;20541;-79
2023/03/07 10:31:14;;;;;;;4.30;2.47;;;4.30;99.90;;;;;;4944018;28;20841;-80
2023/03/07 10:33:41;;;;;;;4.88;2.50;;;4.40;99.90;;;;;;4928006;29;20048;-79
2023/03/07 10:36:12;;;;;;;4.70;2.83;;;4.40;99.90;;;;;;4913145;29;20488;-79
2023/03/07 10:38:54;;;;;;;6.32;3.33;;;4.40;99.90;;;;;;4906082;29;20043;-79
2023/03/07 10:41:20;;;;;;;4.70;3.22;;;4.50;99.90;;;;;;4931698;28;20050;-78
2023/03/07 10:43:46;;;;;;;5.50;3.30;;;4.40;99.90;;;;;;4915783;29;20035;-79
2023/03/07 10:46:13;;;;;;;8.38;5.13;;;4.40;99.90;;;;;;4898214;28;20103;-79
2023/03/07 10:48:42;;;;;;;6.30;4.22;;;4.40;99.90;;;;;;4911473;28;20039;-79
2023/03/07 10:51:22;;;;;;;7.40;5.05;;;4.40;99.90;;;;;;4903080;28;20033;-78
2023/03/07 10:53:48;;;;;;;8.85;5.65;;;4.40;99.90;;;;;;4954148;28;20070;-78
2023/03/07 10:56:14;;;;;;;7.63;4.88;;;4.40;99.90;;;;;;4911983;28;20519;-80
2023/03/07 10:59:00;;;;;;;7.68;4.72;;;4.50;99.90;;;;;;4904061;28;20038;-80
2023/03/07 11:01:26;;;;;;;9.07;4.68;;;4.50;99.90;;;;;;4930192;28;20373;-79
2023/03/07 11:04:05;;;;;;;6.57;4.50;;;4.60;99.90;;;;;;4914509;28;20027;-79
2023/03/07 11:06:50;;;;;;;7.88;4.53;;;4.60;99.90;;;;;;4905391;28;20035;-80
2023/03/07 11:09:26;;;;;;;7.25;3.55;;;4.70;99.90;;;;;;4907468;28;20036;-78
2023/03/07 11:11:58;;;;;;;13.40;5.90;;;4.70;99.90;;;;;;4903184;28;20035;-79
2023/03/07 11:14:28;;;;;;;8.90;5.18;;;4.80;99.90;;;;;;4955104;28;20197;-79
2023/03/07 11:16:59;;;;;;;9.98;6.53;;;4.80;99.90;;;;;;4912674;29;20042;-79
2023/03/07 11:19:37;;;;;;;13.98;5.65;;;4.80;99.90;;;;;;4894784;28;20375;-79
2023/03/07 11:22:24;;;;;;;6.80;4.60;;;4.80;99.90;;;;;;4912165;28;20587;-78
2023/03/07 11:24:58;;;;;;;8.32;5.22;;;4.80;99.90;;;;;;4933984;28;20074;-79
2023/03/07 11:27:32;;;;;;;5.88;4.03;;;4.80;99.90;;;;;;4922092;28;20027;-77
2023/03/07 11:30:31;;;;;;;7.53;5.10;;;4.90;99.90;;;;;;4900745;28;20038;-77
2023/03/07 11:32:59;;;;;;;4.85;3.33;;;4.90;99.90;;;;;;4913898;28;20039;-78
2023/03/07 11:35:42;;;;;;;6.90;4.63;;;4.80;99.90;;;;;;4943852;28;20028;-77
2023/03/07 11:38:13;;;;;;;7.32;5.47;;;4.80;99.90;;;;;;4933989;28;20046;-77
2023/03/07 11:40:42;;;;;;;9.93;5.35;;;4.90;99.90;;;;;;4909859;28;20122;-78
2023/03/07 11:43:21;;;;;;;7.35;5.35;;;4.80;99.90;;;;;;4923705;28;20027;-78
2023/03/07 11:46:04;;;;;;;8.75;5.47;;;4.90;99.90;;;;;;4900799;28;20205;-79
2023/03/07 11:48:45;;;;;;;7.35;4.93;;;4.90;99.90;;;;;;4947103;28;20053;-78
2023/03/07 11:51:25;;;;;;;7.35;5.15;;;4.90;99.90;;;;;;4952999;28;20039;-77
2023/03/07 11:54:14;;;;;;;5.20;3.28;;;5.00;99.90;;;;;;4911086;28;20036;-78
2023/03/07 11:56:45;;;;;;;9.02;5.15;;;5.00;99.90;;;;;;4914822;28;20105;-78
2023/03/07 11:59:22;;;;;;;7.75;5.47;;;5.00;99.90;;;;;;4916421;28;20040;-78
2023/03/07 12:02:01;;;;;;;7.85;5.93;;;5.10;99.90;;;;;;4950163;28;20027;-78
2023/03/07 12:04:33;;;;;;;11.48;7.07;;;5.10;99.90;;;;;;4932296;28;21579;-78
2023/03/07 12:07:10;;;;;;;11.55;7.10;;;5.10;99.90;;;;;;4947380;28;20066;-77
2023/03/07 12:10:00;;;;;;;12.77;7.33;;;5.10;99.90;;;;;;4234766;28;10000673;-79
2023/03/07 12:13:03;;;;;;;14.98;8.80;;;5.20;99.90;;;;;;4938350;28;20039;-80
2023/03/07 12:15:34;;;;;;;15.23;8.80;;;5.20;99.90;;;;;;4911571;28;20512;-81
2023/03/07 12:18:15;;;;;;;12.40;8.15;;;5.20;99.90;;;;;;4914866;28;20039;-81
2023/03/07 12:21:26;;;;;;;13.18;7.07;;;5.20;99.90;;;;;;4929276;28;20039;-81
2023/03/07 12:23:59;;;;;;;14.35;7.78;;;5.30;99.90;;;;;;4922099;28;20066;-81
2023/03/07 12:26:27;;;;;;;11.43;6.93;;;5.30;99.90;;;;;;4897471;28;20118;-80
2023/03/07 12:29:11;;;;;;;15.82;8.68;;;5.30;99.90;;;;;;4888682;28;20043;-80
2023/03/07 12:31:39;;;;;;;14.05;8.35;;;5.30;99.90;;;;;;4943213;28;20042;-82
2023/03/07 12:34:12;;;;;;;14.32;8.52;;;5.30;99.90;;;;;;4896010;29;20041;-81
2023/03/07 12:36:43;;;;;;;13.02;7.25;;;5.30;99.90;;;;;;4921601;28;20354;-82
2023/03/07 12:39:26;;;;;;;11.82;6.80;;;5.30;99.90;;;;;;4927576;28;20459;-81
2023/03/07 12:42:02;;;;;;;13.75;8.90;;;5.40;99.90;;;;;;4898136;29;20043;-82
2023/03/07 12:44:54;;;;;;;12.13;6.75;;;5.40;99.90;;;;;;4906699;28;20575;-80
2023/03/07 12:47:53;;;;;;;11.90;7.10;;;5.40;99.90;;;;;;4902654;28;20066;-80
2023/03/07 12:50:31;;;;;;;9.93;5.40;;;5.40;99.90;;;;;;4942566;28;20046;-81
2023/03/07 12:52:59;;;;;;;11.57;7.07;;;5.20;99.90;;;;;;4951493;28;20495;-82
2023/03/07 12:55:36;;;;;;;8.93;5.68;;;5.10;99.90;;;;;;4948727;28;20523;-80
2023/03/07 12:58:21;;;;;;;9.95;4.90;;;5.20;99.90;;;;;;4932408;28;20045;-80
2023/03/07 13:00:54;;;;;;;9.85;6.38;;;5.00;99.90;;;;;;4919104;28;20046;-80